Time;durP1;ratioP1;P1;durP2;ratioP2;P2;SDS_P1;SDS_P2;PMS_P1;PMS_P2;Temp;Humidity;BMP_temperature;BMP_pressure;BME280_temperature;BME280_humidity;BME280_pressure;Samples;Min_cycle;Max_cycle;Signal;HPM_P1;HPM_P2
2023/12/08 00:00:25;;;;;;;13.93;7.65;;;2.80;94.60;;;;;;4945521;29;20055;-77
2023/12/08 00:02:50;;;;;;;14.15;7.63;;;2.80;94.50;;;;;;4944846;29;20043;-78
2023/12/08 00:05:16;;;;;;;13.88;8.23;;;2.90;94.90;;;;;;4944151;29;20260;-76
2023/12/08 00:07:42;;;;;;;13.23;7.40;;;2.90;94.10;;;;;;4912306;29;20039;-75
2023/12/08 00:10:09;;;;;;;12.65;7.35;;;2.80;93.90;;;;;;4939500;29;20032;-75
2023/12/08 00:12:34;;;;;;;13.38;7.93;;;2.80;93.40;;;;;;4946663;29;20420;-74
2023/12/08 00:15:00;;;;;;;13.60;7.30;;;2.80;93.30;;;;;;4946477;29;20035;-76
2023/12/08 00:17:27;;;;;;;12.32;6.97;;;2.80;93.30;;;;;;4946660;29;20043;-77
2023/12/08 00:19:53;;;;;;;12.05;6.70;;;2.80;92.70;;;;;;4931052;29;20015;-77
2023/12/08 00:22:19;;;;;;;12.43;6.75;;;2.90;92.70;;;;;;4963228;29;20039;-77
2023/12/08 00:24:45;;;;;;;10.07;6.32;;;2.90;92.90;;;;;;4946559;29;20063;-76
2023/12/08 00:27:10;;;;;;;11.95;7.20;;;2.80;93.00;;;;;;4962796;29;20082;-78
2023/12/08 00:29:38;;;;;;;13.43;7.10;;;2.80;93.00;;;;;;4946054;29;20045;-77
2023/12/08 00:32:04;;;;;;;10.77;6.65;;;2.80;93.30;;;;;;4963178;29;20213;-76
2023/12/08 00:34:30;;;;;;;12.57;7.25;;;2.80;93.20;;;;;;4963531;29;20070;-77
2023/12/08 00:36:55;;;;;;;12.68;6.63;;;2.90;93.30;;;;;;4963550;29;20042;-76
2023/12/08 00:39:22;;;;;;;11.93;7.15;;;2.80;93.40;;;;;;4963498;29;20035;-76
2023/12/08 00:41:47;;;;;;;12.27;7.28;;;2.80;93.60;;;;;;4963581;29;20058;-74
2023/12/08 00:44:13;;;;;;;13.48;7.00;;;2.80;93.30;;;;;;4946184;29;20105;-76
2023/12/08 00:46:39;;;;;;;12.30;7.10;;;2.90;93.50;;;;;;4936708;29;20035;-74
2023/12/08 00:49:04;;;;;;;13.07;7.55;;;2.90;93.50;;;;;;4943892;29;20028;-76
2023/12/08 00:51:30;;;;;;;10.15;7.03;;;3.00;93.70;;;;;;4944085;29;20360;-76
2023/12/08 00:53:55;;;;;;;15.75;7.90;;;2.90;93.60;;;;;;4927452;29;20070;-75
2023/12/08 00:56:21;;;;;;;13.25;7.95;;;2.90;93.40;;;;;;4943661;29;20015;-77
2023/12/08 00:58:47;;;;;;;12.95;7.53;;;2.80;93.60;;;;;;4943909;29;20028;-75
2023/12/08 01:01:12;;;;;;;11.90;7.32;;;2.80;93.60;;;;;;4926470;29;20055;-75
2023/12/08 01:03:38;;;;;;;13.60;7.97;;;2.80;93.70;;;;;;4947548;29;20015;-76
2023/12/08 01:06:04;;;;;;;12.48;8.10;;;2.80;93.80;;;;;;4943590;29;20043;-75
2023/12/08 01:08:29;;;;;;;13.27;7.82;;;2.80;93.90;;;;;;4944033;29;20046;-76
2023/12/08 01:10:55;;;;;;;16.67;8.00;;;2.90;93.70;;;;;;4927195;29;20098;-77
2023/12/08 01:13:21;;;;;;;14.00;7.65;;;2.90;93.90;;;;;;4955996;29;20066;-76
2023/12/08 01:15:47;;;;;;;13.88;7.38;;;2.90;93.60;;;;;;4963253;29;20057;-78
2023/12/08 01:18:13;;;;;;;12.20;7.30;;;2.90;93.80;;;;;;4929630;29;20050;-77
2023/12/08 01:20:39;;;;;;;11.90;7.53;;;2.90;93.70;;;;;;4951241;29;20067;-77
2023/12/08 01:23:04;;;;;;;14.23;8.48;;;2.90;93.80;;;;;;4930427;29;20143;-77
2023/12/08 01:25:30;;;;;;;15.00;8.20;;;2.90;93.80;;;;;;4947989;29;20024;-77
2023/12/08 01:27:56;;;;;;;13.75;8.25;;;3.00;93.80;;;;;;4930972;29;20309;-76
2023/12/08 01:30:22;;;;;;;16.38;9.43;;;2.90;93.90;;;;;;4947114;29;20504;-77
2023/12/08 06:26:12;;;;;;;16.75;9.80;;;2.90;99.90;;;;;;5450466;23;20343;-76
2023/12/08 06:28:38;;;;;;;19.77;10.10;;;3.00;99.90;;;;;;4962222;29;20312;-76
2023/12/08 06:31:04;;;;;;;19.38;9.93;;;3.00;99.90;;;;;;4965865;29;20139;-76
2023/12/08 06:33:29;;;;;;;21.38;10.68;;;3.00;99.90;;;;;;4964261;29;20335;-76
2023/12/08 06:35:55;;;;;;;17.73;9.75;;;3.10;99.90;;;;;;4967377;29;20027;-77
2023/12/08 06:38:33;;;;;;;16.58;9.85;;;3.00;99.90;;;;;;4949558;29;20050;-76
2023/12/08 06:40:59;;;;;;;17.98;10.13;;;3.00;99.90;;;;;;4950238;29;20090;-76
2023/12/08 06:43:25;;;;;;;15.27;9.35;;;3.00;99.90;;;;;;4983037;28;20375;-77
2023/12/08 06:45:51;;;;;;;19.23;10.68;;;3.00;99.90;;;;;;4968019;29;20304;-76
2023/12/08 06:48:17;;;;;;;18.25;9.80;;;2.90;99.90;;;;;;4967008;28;20309;-76
2023/12/08 06:50:43;;;;;;;17.00;9.23;;;3.00;99.90;;;;;;4965944;29;20027;-76
2023/12/08 06:53:09;;;;;;;16.85;9.05;;;3.00;99.90;;;;;;4966960;29;20015;-77
2023/12/08 06:55:35;;;;;;;15.52;9.30;;;3.00;99.90;;;;;;4934177;29;20034;-75
2023/12/08 06:58:03;;;;;;;15.50;8.38;;;3.10;99.90;;;;;;4931037;29;20043;-76
2023/12/08 07:00:29;;;;;;;13.48;8.20;;;3.10;99.90;;;;;;4976659;28;20023;-75
2023/12/08 07:02:55;;;;;;;13.32;8.57;;;3.20;99.90;;;;;;4934673;29;20304;-76
2023/12/08 07:05:21;;;;;;;16.65;8.80;;;3.20;99.90;;;;;;4966999;29;20027;-75
2023/12/08 07:07:47;;;;;;;15.15;8.55;;;3.20;99.90;;;;;;4982561;28;20038;-75
2023/12/08 07:10:14;;;;;;;15.20;8.57;;;3.20;99.90;;;;;;4949654;29;20023;-76
2023/12/08 07:12:44;;;;;;;14.50;7.32;;;3.20;99.90;;;;;;4956106;29;20071;-75
2023/12/08 07:15:13;;;;;;;12.40;7.40;;;3.20;99.90;;;;;;4946805;29;20026;-77
2023/12/08 07:17:39;;;;;;;13.15;7.72;;;3.20;99.90;;;;;;4960632;28;20036;-74
2023/12/08 07:20:11;;;;;;;10.98;6.97;;;3.30;99.90;;;;;;4945687;29;20111;-77
2023/12/08 07:22:37;;;;;;;12.98;7.57;;;3.20;99.90;;;;;;4929797;29;20027;-76
2023/12/08 07:25:09;;;;;;;12.80;7.93;;;3.30;99.90;;;;;;4961057;29;20160;-76
2023/12/08 07:27:34;;;;;;;14.48;8.13;;;3.20;99.90;;;;;;4945630;29;20040;-76
2023/12/08 07:30:03;;;;;;;14.40;7.72;;;3.20;99.90;;;;;;4928282;29;20064;-75
2023/12/08 07:32:28;;;;;;;;;;;3.20;99.90;;;;;;4945718;29;20048;-75
2023/12/08 07:34:55;;;;;;;12.68;7.07;;;3.30;99.90;;;;;;4945298;29;19926;-76
2023/12/08 07:37:22;;;;;;;14.02;7.28;;;3.40;99.90;;;;;;4946530;29;20035;-74
2023/12/08 07:39:47;;;;;;;16.38;8.10;;;3.40;99.90;;;;;;4945505;29;20087;-75
2023/12/08 07:42:14;;;;;;;13.82;8.68;;;3.40;99.90;;;;;;4945656;29;20039;-75
2023/12/08 07:44:40;;;;;;;16.77;8.55;;;3.50;99.90;;;;;;4945967;29;20015;-74
2023/12/08 07:47:07;;;;;;;15.48;8.77;;;3.50;99.90;;;;;;4947025;29;20035;-76
2023/12/08 07:49:32;;;;;;;16.58;8.90;;;3.50;99.90;;;;;;4940575;29;20040;-74
2023/12/08 07:51:59;;;;;;;17.10;10.18;;;3.50;99.90;;;;;;4942369;29;20027;-76
2023/12/08 07:54:31;;;;;;;21.77;10.27;;;3.40;99.90;;;;;;4926780;29;20075;-76
2023/12/08 07:57:00;;;;;;;21.20;10.95;;;3.40;99.90;;;;;;4942091;29;20095;-75
2023/12/08 07:59:32;;;;;;;17.70;10.07;;;3.50;99.90;;;;;;4926872;29;20095;-76
2023/12/08 08:02:03;;;;;;;22.35;10.60;;;3.50;99.90;;;;;;4927254;29;20044;-75
2023/12/08 08:04:30;;;;;;;19.40;10.70;;;3.50;99.90;;;;;;4934470;29;20079;-75
2023/12/08 08:06:56;;;;;;;23.75;12.18;;;3.60;99.90;;;;;;4929123;29;20094;-76
2023/12/08 08:09:25;;;;;;;23.55;11.63;;;3.60;99.90;;;;;;4946102;29;20023;-76
2023/12/08 08:11:51;;;;;;;22.20;11.68;;;3.60;99.90;;;;;;4929326;29;20082;-76
2023/12/08 08:14:22;;;;;;;21.00;11.82;;;3.60;99.90;;;;;;4928913;29;20027;-76
2023/12/08 08:16:48;;;;;;;22.85;11.95;;;3.60;99.90;;;;;;4945780;29;20213;-74
2023/12/08 08:19:14;;;;;;;22.60;12.23;;;3.60;99.90;;;;;;4929261;29;20028;-75
2023/12/08 08:21:40;;;;;;;23.33;11.93;;;3.60;99.90;;;;;;4945495;29;20217;-76
2023/12/08 08:24:05;;;;;;;21.50;12.88;;;3.80;99.90;;;;;;4928300;29;20241;-75
2023/12/08 08:26:43;;;;;;;23.88;11.43;;;3.80;99.90;;;;;;4925165;29;20251;-75
2023/12/08 08:29:09;;;;;;;20.85;11.73;;;3.80;99.90;;;;;;4927450;29;20032;-75
2023/12/08 08:31:35;;;;;;;21.00;11.40;;;3.90;99.90;;;;;;4911240;29;20039;-73
2023/12/08 08:34:01;;;;;;;21.98;10.95;;;4.00;99.90;;;;;;4934795;29;20317;-72
2023/12/08 08:36:30;;;;;;;20.52;12.60;;;4.00;99.90;;;;;;4918817;29;20092;-77
2023/12/08 08:39:03;;;;;;;21.58;11.35;;;4.00;99.90;;;;;;4932466;29;20061;-72
2023/12/08 08:41:29;;;;;;;23.08;11.68;;;4.10;99.90;;;;;;4926797;29;20031;-74
2023/12/08 08:43:57;;;;;;;27.90;12.55;;;4.20;99.90;;;;;;4926310;29;20125;-75
2023/12/08 08:46:26;;;;;;;25.33;13.05;;;4.20;99.90;;;;;;4924801;29;20046;-75
2023/12/08 08:48:55;;;;;;;26.83;12.82;;;4.30;99.90;;;;;;4925046;29;20078;-75
2023/12/08 08:51:21;;;;;;;26.60;13.05;;;4.30;99.90;;;;;;4925467;29;20356;-75
2023/12/08 08:53:49;;;;;;;25.88;12.23;;;4.30;99.90;;;;;;4926008;29;20035;-77
2023/12/08 08:56:16;;;;;;;27.47;13.20;;;4.30;99.90;;;;;;4925964;29;20035;-77
2023/12/08 08:58:42;;;;;;;26.27;13.82;;;4.20;99.90;;;;;;4925354;29;20036;-77
2023/12/08 09:01:07;;;;;;;26.38;14.52;;;4.20;99.90;;;;;;4918216;29;20116;-76
2023/12/08 09:03:36;;;;;;;25.90;13.73;;;4.10;99.90;;;;;;4918844;29;20079;-76
2023/12/08 09:06:08;;;;;;;26.73;14.27;;;4.00;99.90;;;;;;4924249;29;20215;-75
2023/12/08 09:08:36;;;;;;;28.58;14.05;;;3.90;99.90;;;;;;4914825;29;20032;-74
2023/12/08 09:11:12;;;;;;;24.45;14.15;;;3.90;99.90;;;;;;4926937;29;20389;-76
2023/12/08 09:13:41;;;;;;;24.10;13.35;;;4.00;99.90;;;;;;4924744;29;20032;-77
2023/12/08 09:16:06;;;;;;;26.63;12.88;;;4.10;99.90;;;;;;4925489;29;20040;-78
2023/12/08 09:18:38;;;;;;;26.90;13.50;;;4.10;99.90;;;;;;4926355;29;20034;-77
2023/12/08 09:21:05;;;;;;;21.92;12.25;;;4.20;99.90;;;;;;4925306;29;20028;-76
2023/12/08 09:23:34;;;;;;;22.60;13.18;;;4.30;99.90;;;;;;4925762;29;20056;-76
2023/12/08 09:25:59;;;;;;;20.60;11.85;;;4.30;99.90;;;;;;4932393;29;20359;-78
2023/12/08 09:28:25;;;;;;;25.75;12.90;;;4.40;99.90;;;;;;4885311;29;20250;-76
2023/12/08 09:30:58;;;;;;;21.98;11.02;;;4.40;99.90;;;;;;4924309;29;20044;-77
2023/12/08 09:33:24;;;;;;;20.60;12.00;;;4.50;99.90;;;;;;4940467;29;20020;-76
2023/12/08 09:35:55;;;;;;;24.40;10.80;;;4.50;99.90;;;;;;4956548;29;20021;-77
2023/12/08 09:38:29;;;;;;;21.15;11.95;;;4.60;99.90;;;;;;4916195;29;20043;-77
2023/12/08 09:41:01;;;;;;;20.95;10.70;;;4.60;99.90;;;;;;4910725;29;20247;-77
2023/12/08 09:43:38;;;;;;;18.33;10.52;;;4.60;99.90;;;;;;4943553;29;20032;-77
2023/12/08 09:46:08;;;;;;;21.50;11.57;;;4.70;99.90;;;;;;4929097;29;20064;-76
2023/12/08 09:48:37;;;;;;;20.25;10.50;;;4.80;99.90;;;;;;4929877;29;20036;-75
2023/12/08 09:51:04;;;;;;;18.25;11.35;;;4.70;99.90;;;;;;4926638;29;20028;-75
2023/12/08 09:53:36;;;;;;;21.65;11.10;;;4.70;99.90;;;;;;4934648;29;20028;-75
2023/12/08 09:56:05;;;;;;;18.40;11.88;;;4.80;99.90;;;;;;4941767;29;20020;-77
2023/12/08 09:58:36;;;;;;;18.67;11.05;;;4.80;99.90;;;;;;4942744;29;20073;-77
2023/12/08 10:01:04;;;;;;;19.13;11.77;;;4.90;99.90;;;;;;4929143;29;20103;-76
2023/12/08 10:03:30;;;;;;;19.45;10.90;;;5.10;99.90;;;;;;4928907;29;20047;-76
2023/12/08 10:05:56;;;;;;;20.67;12.50;;;5.20;99.90;;;;;;4928161;29;20035;-77
2023/12/08 10:08:25;;;;;;;19.35;10.57;;;5.30;99.90;;;;;;4928587;29;20028;-76
2023/12/08 10:10:52;;;;;;;16.88;10.02;;;5.40;99.90;;;;;;4910013;29;20020;-77
2023/12/08 10:13:20;;;;;;;15.32;8.98;;;5.40;99.90;;;;;;4941098;29;20032;-76
2023/12/08 10:15:46;;;;;;;20.10;9.95;;;5.40;99.90;;;;;;4940709;29;20029;-76
2023/12/08 10:18:26;;;;;;;16.13;9.27;;;5.40;99.90;;;;;;4925745;29;20028;-76
2023/12/08 10:21:17;;;;;;;18.58;9.77;;;5.50;99.90;;;;;;4941176;29;20024;-76
2023/12/08 10:23:44;;;;;;;17.02;9.32;;;5.50;99.90;;;;;;4925182;29;20029;-75
2023/12/08 10:26:12;;;;;;;18.77;10.70;;;5.50;99.90;;;;;;4925432;29;20152;-75
2023/12/08 10:28:42;;;;;;;24.02;9.90;;;5.40;99.90;;;;;;4913391;29;20059;-76
2023/12/08 10:31:09;;;;;;;21.23;10.15;;;5.40;99.90;;;;;;4924960;29;20024;-77
2023/12/08 10:33:39;;;;;;;18.02;10.18;;;5.40;99.90;;;;;;4909966;29;20032;-76
2023/12/08 10:36:05;;;;;;;19.42;9.93;;;5.40;99.90;;;;;;4925408;29;20326;-76
2023/12/08 10:38:35;;;;;;;15.45;8.55;;;5.50;99.90;;;;;;4923720;29;20330;-75
2023/12/08 10:41:02;;;;;;;16.27;7.85;;;5.50;99.90;;;;;;4925417;29;20132;-75
2023/12/08 10:43:29;;;;;;;11.23;5.90;;;5.60;99.90;;;;;;4921463;29;20036;-75
2023/12/08 10:45:56;;;;;;;17.65;8.10;;;5.70;99.90;;;;;;4910854;29;20374;-75
2023/12/08 10:48:23;;;;;;;16.27;8.38;;;5.90;99.90;;;;;;4927765;29;20300;-75
2023/12/08 10:50:50;;;;;;;15.13;7.45;;;5.90;99.90;;;;;;4928226;29;20080;-76
2023/12/08 10:53:20;;;;;;;12.43;6.73;;;5.90;99.90;;;;;;4929280;29;20091;-78
2023/12/08 10:56:00;;;;;;;16.40;7.43;;;5.90;99.90;;;;;;4928352;29;20036;-75
2023/12/08 10:58:43;;;;;;;14.75;7.80;;;6.00;99.90;;;;;;4928738;29;20066;-77
2023/12/08 11:01:15;;;;;;;14.38;8.43;;;6.10;99.90;;;;;;4920725;29;20314;-77
2023/12/08 11:03:42;;;;;;;19.73;8.88;;;6.10;99.90;;;;;;4924073;29;20044;-76
2023/12/08 11:06:19;;;;;;;17.60;9.40;;;6.10;99.90;;;;;;4908810;29;20033;-78
2023/12/08 11:08:46;;;;;;;12.73;7.25;;;6.20;99.90;;;;;;4925612;29;20032;-77
2023/12/08 11:11:16;;;;;;;20.35;8.75;;;6.20;99.90;;;;;;4924253;29;20052;-77
2023/12/08 11:13:48;;;;;;;22.25;9.80;;;6.30;99.90;;;;;;4942794;29;20051;-75
2023/12/08 11:16:23;;;;;;;17.80;9.35;;;6.30;99.90;;;;;;4943025;29;20032;-77
2023/12/08 11:18:50;;;;;;;16.40;9.65;;;6.40;99.90;;;;;;4958629;29;20032;-76
2023/12/08 11:21:17;;;;;;;17.85;9.25;;;6.40;99.90;;;;;;4943842;29;20234;-76
2023/12/08 11:23:44;;;;;;;18.83;9.80;;;6.40;99.90;;;;;;4928555;29;20050;-75
2023/12/08 11:26:26;;;;;;;16.90;8.57;;;6.50;99.90;;;;;;4919349;29;20488;-77
2023/12/08 11:29:37;;;;;;;17.65;9.02;;;6.50;99.90;;;;;;4892007;29;20100;-80
2023/12/08 11:32:47;;;;;;;18.88;9.52;;;6.70;99.90;;;;;;4894221;29;20070;-79
2023/12/08 11:35:52;;;;;;;17.58;9.27;;;6.70;99.90;;;;;;4907744;29;20096;-78
2023/12/08 11:38:33;;;;;;;18.30;9.32;;;6.80;99.90;;;;;;4909244;29;20064;-80
2023/12/08 11:40:59;;;;;;;16.70;9.18;;;7.00;99.90;;;;;;4908515;29;20615;-77
2023/12/08 11:43:29;;;;;;;16.63;9.82;;;7.00;99.90;;;;;;4892067;29;20028;-80
2023/12/08 11:45:55;;;;;;;15.07;9.40;;;6.90;99.90;;;;;;4907928;29;20083;-80
2023/12/08 11:48:21;;;;;;;17.00;10.05;;;7.00;99.90;;;;;;4924875;29;20032;-78
2023/12/08 11:50:48;;;;;;;17.92;9.73;;;7.10;99.90;;;;;;4892411;29;20059;-79
2023/12/08 11:53:14;;;;;;;17.92;9.48;;;7.20;99.90;;;;;;4919858;29;20028;-79
2023/12/08 11:55:41;;;;;;;16.70;9.02;;;7.30;99.90;;;;;;4906658;29;20028;-77
2023/12/08 11:58:11;;;;;;;18.65;10.48;;;7.30;99.90;;;;;;4903726;29;20080;-78
2023/12/08 12:00:42;;;;;;;18.67;10.48;;;7.30;99.90;;;;;;4922185;29;20063;-77
2023/12/08 12:03:11;;;;;;;19.98;10.27;;;7.40;99.90;;;;;;4909031;29;20024;-77
2023/12/08 12:05:40;;;;;;;19.30;10.00;;;7.40;99.90;;;;;;4891634;29;20031;-80
2023/12/08 12:08:09;;;;;;;16.27;8.93;;;7.40;99.90;;;;;;4892265;29;20028;-77
2023/12/08 12:10:36;;;;;;;17.80;10.13;;;7.50;99.90;;;;;;4891957;29;20225;-78
2023/12/08 12:13:14;;;;;;;16.98;9.35;;;7.60;99.90;;;;;;4891226;29;20107;-76
2023/12/08 12:15:41;;;;;;;15.30;9.18;;;7.60;99.90;;;;;;4895777;29;20148;-80
2023/12/08 12:18:10;;;;;;;29.67;9.48;;;7.70;99.90;;;;;;4910718;29;20036;-78
2023/12/08 12:20:40;;;;;;;16.50;8.38;;;7.80;99.90;;;;;;4910254;29;20108;-78
2023/12/08 12:23:07;;;;;;;14.90;8.15;;;7.80;99.90;;;;;;4910546;29;20066;-79
2023/12/08 12:25:52;;;;;;;15.00;8.38;;;7.80;99.90;;;;;;4910389;29;20088;-78
2023/12/08 12:28:19;;;;;;;15.35;8.85;;;7.90;99.90;;;;;;4917986;29;20035;-79
2023/12/08 12:30:48;;;;;;;14.38;8.70;;;8.10;99.90;;;;;;4930682;29;20032;-79
2023/12/08 12:33:18;;;;;;;18.17;8.70;;;8.00;99.90;;;;;;4926031;29;20087;-79
2023/12/08 12:35:57;;;;;;;12.93;8.57;;;8.10;99.90;;;;;;4926075;29;20044;-79
2023/12/08 12:38:24;;;;;;;13.23;7.97;;;8.10;99.90;;;;;;4920734;29;20047;-77
2023/12/08 12:41:14;;;;;;;13.90;9.07;;;8.10;99.90;;;;;;4939159;29;20055;-80
2023/12/08 12:43:46;;;;;;;14.95;8.65;;;8.10;99.90;;;;;;4950867;29;20083;-78
2023/12/08 12:46:12;;;;;;;14.82;8.13;;;8.20;99.90;;;;;;4942590;29;20429;-79
2023/12/08 12:48:48;;;;;;;14.88;9.02;;;8.20;99.90;;;;;;4925730;29;20047;-79
2023/12/08 12:51:14;;;;;;;13.70;8.60;;;8.20;99.90;;;;;;4942352;29;20056;-79
2023/12/08 12:53:48;;;;;;;12.07;8.20;;;8.30;99.90;;;;;;4925482;29;20058;-78
2023/12/08 12:56:30;;;;;;;13.88;8.30;;;8.30;99.90;;;;;;4925996;29;20028;-79
2023/12/08 12:59:19;;;;;;;13.57;8.38;;;8.30;99.90;;;;;;4924524;29;20115;-79
2023/12/08 13:02:00;;;;;;;14.80;8.40;;;8.20;99.90;;;;;;4876140;29;20028;-78
2023/12/08 13:04:31;;;;;;;12.85;8.52;;;8.20;99.90;;;;;;4907133;29;20226;-78
2023/12/08 13:07:12;;;;;;;15.93;8.55;;;8.00;99.90;;;;;;4922518;29;20055;-76
2023/12/08 13:09:40;;;;;;;16.50;8.73;;;8.00;99.90;;;;;;4893773;29;20071;-77
2023/12/08 13:12:07;;;;;;;15.98;9.30;;;7.90;99.90;;;;;;4924120;29;20040;-76
2023/12/08 13:14:33;;;;;;;14.07;9.43;;;7.80;99.90;;;;;;4927226;29;20048;-76
2023/12/08 13:17:05;;;;;;;16.00;9.50;;;7.80;99.90;;;;;;4895134;29;20072;-79
2023/12/08 13:19:33;;;;;;;17.33;9.65;;;7.70;99.90;;;;;;4914637;29;20111;-80
2023/12/08 13:22:02;;;;;;;16.42;10.02;;;7.60;99.90;;;;;;4925565;29;20024;-78
2023/12/08 13:24:28;;;;;;;15.35;10.10;;;7.60;99.90;;;;;;4910262;29;20072;-79
2023/12/08 13:26:55;;;;;;;20.88;10.73;;;7.60;99.90;;;;;;4925682;29;20059;-82
2023/12/08 13:29:21;;;;;;;20.45;11.25;;;7.50;99.90;;;;;;4942084;29;20033;-76
2023/12/08 13:31:48;;;;;;;16.52;10.05;;;7.60;99.90;;;;;;4926778;29;20028;-79
2023/12/08 13:34:18;;;;;;;15.95;10.05;;;7.60;99.90;;;;;;4940090;29;20032;-75
2023/12/08 13:36:48;;;;;;;19.65;9.43;;;7.50;99.90;;;;;;4945275;29;20106;-77
2023/12/08 13:39:18;;;;;;;18.02;10.45;;;7.60;99.90;;;;;;4929147;29;20028;-78
2023/12/08 13:41:44;;;;;;;20.00;10.27;;;7.60;99.90;;;;;;4928236;29;20044;-77
2023/12/08 13:44:09;;;;;;;18.15;10.80;;;7.70;99.90;;;;;;4912893;29;20016;-77
2023/12/08 13:46:35;;;;;;;17.60;10.30;;;7.60;99.90;;;;;;4929755;29;20127;-78
2023/12/08 13:49:01;;;;;;;18.70;10.90;;;7.60;99.90;;;;;;4928188;29;20066;-74
2023/12/08 13:51:29;;;;;;;18.48;9.52;;;7.60;99.90;;;;;;4926860;29;20027;-77
2023/12/08 13:53:54;;;;;;;18.33;9.53;;;7.60;99.90;;;;;;4949327;29;20051;-77
2023/12/08 13:56:20;;;;;;;15.25;9.43;;;7.70;99.90;;;;;;4925179;29;20080;-78
2023/12/08 13:58:49;;;;;;;19.55;9.60;;;7.70;99.90;;;;;;4929677;29;20016;-78
2023/12/08 14:01:15;;;;;;;17.88;9.45;;;7.70;99.90;;;;;;4929929;29;20039;-76
2023/12/08 14:03:41;;;;;;;19.63;10.70;;;7.70;99.90;;;;;;4960765;29;20028;-76
2023/12/08 14:06:07;;;;;;;18.23;10.57;;;7.70;99.90;;;;;;4929376;29;20419;-78
2023/12/08 14:08:33;;;;;;;17.73;10.27;;;7.70;99.90;;;;;;4960636;29;20040;-77
2023/12/08 14:11:00;;;;;;;17.10;9.98;;;7.60;99.90;;;;;;4929489;29;20043;-78
2023/12/08 14:13:25;;;;;;;17.23;10.82;;;7.60;99.90;;;;;;4928557;29;20055;-78
2023/12/08 14:15:51;;;;;;;20.05;10.95;;;7.60;99.90;;;;;;4959634;29;20075;-78
2023/12/08 14:18:17;;;;;;;21.45;11.93;;;7.60;99.90;;;;;;4928193;29;20222;-76
2023/12/08 14:20:44;;;;;;;24.92;13.10;;;7.60;99.90;;;;;;4912456;29;20028;-77
2023/12/08 14:23:11;;;;;;;21.02;12.48;;;7.50;99.90;;;;;;4913433;29;20374;-75
2023/12/08 14:25:36;;;;;;;19.17;11.75;;;7.50;99.90;;;;;;4924584;29;20049;-77
2023/12/08 14:28:02;;;;;;;21.05;11.77;;;7.50;99.90;;;;;;4924610;29;20109;-75
2023/12/08 14:30:28;;;;;;;17.67;11.02;;;7.50;99.90;;;;;;4909583;29;20028;-76
2023/12/08 14:32:53;;;;;;;20.80;11.57;;;7.50;99.90;;;;;;4896059;29;20177;-75
2023/12/08 14:35:19;;;;;;;19.02;11.68;;;7.50;99.90;;;;;;4929256;29;20024;-75
2023/12/08 14:37:45;;;;;;;15.70;10.48;;;7.50;99.90;;;;;;4924461;29;20033;-77
2023/12/08 14:40:11;;;;;;;15.65;9.88;;;7.40;99.90;;;;;;4940280;29;20032;-77
2023/12/08 14:42:40;;;;;;;16.35;9.63;;;7.40;99.90;;;;;;4910052;29;20028;-76
2023/12/08 14:45:06;;;;;;;16.42;9.52;;;7.40;99.90;;;;;;4908176;29;20075;-76
2023/12/08 14:47:32;;;;;;;13.90;9.23;;;7.40;99.90;;;;;;4924979;29;20044;-74
2023/12/08 14:49:58;;;;;;;16.65;9.93;;;7.40;99.90;;;;;;4943025;29;20325;-76
2023/12/08 14:52:24;;;;;;;15.05;8.73;;;7.30;99.90;;;;;;4929068;29;20103;-75
2023/12/08 14:54:50;;;;;;;17.95;10.57;;;7.40;99.90;;;;;;4923396;29;20044;-75
2023/12/08 14:57:18;;;;;;;16.92;10.57;;;7.40;99.90;;;;;;4923846;29;20028;-77
2023/12/08 14:59:44;;;;;;;14.57;9.73;;;7.40;99.90;;;;;;4908072;29;20040;-75
2023/12/08 15:02:10;;;;;;;15.70;8.65;;;7.40;99.90;;;;;;4908654;29;20266;-76
2023/12/08 15:04:35;;;;;;;16.25;9.27;;;7.40;99.90;;;;;;4909202;29;20028;-75
2023/12/08 15:07:01;;;;;;;16.58;9.00;;;7.40;99.90;;;;;;4908891;29;20100;-77
2023/12/08 15:09:27;;;;;;;16.23;9.40;;;7.40;99.90;;;;;;4909096;29;20318;-76
2023/12/08 15:11:52;;;;;;;15.38;9.00;;;7.40;99.90;;;;;;4911706;29;20307;-76
2023/12/08 15:14:18;;;;;;;17.02;8.18;;;7.40;99.90;;;;;;4909212;29;20044;-76
2023/12/08 15:16:44;;;;;;;16.98;8.68;;;7.50;99.90;;;;;;4909184;29;20044;-78
2023/12/08 15:19:09;;;;;;;15.65;8.52;;;7.50;99.90;;;;;;4908669;29;20028;-78
2023/12/08 15:21:36;;;;;;;20.05;8.82;;;7.50;99.90;;;;;;4924095;29;20057;-76
2023/12/08 15:24:02;;;;;;;22.05;9.85;;;7.50;99.90;;;;;;4908011;29;20052;-76
2023/12/08 15:26:28;;;;;;;15.50;7.85;;;7.50;99.90;;;;;;4914557;29;20044;-77
2023/12/08 15:28:53;;;;;;;14.38;8.20;;;7.50;99.90;;;;;;4927038;29;20036;-75
2023/12/08 15:31:19;;;;;;;17.08;9.35;;;7.50;99.90;;;;;;4927238;29;20214;-77
2023/12/08 15:33:45;;;;;;;15.50;8.98;;;7.50;99.90;;;;;;4927353;29;20020;-76
2023/12/08 15:36:15;;;;;;;15.50;8.63;;;7.50;99.90;;;;;;4910086;29;20039;-77
2023/12/08 15:38:42;;;;;;;15.68;8.85;;;7.50;99.90;;;;;;4925585;29;20091;-77
2023/12/08 15:41:08;;;;;;;14.32;8.10;;;7.50;99.90;;;;;;4926633;29;20024;-76
2023/12/08 15:43:34;;;;;;;15.77;8.35;;;7.50;99.90;;;;;;4924941;29;20108;-76
2023/12/08 15:46:04;;;;;;;14.95;8.27;;;7.50;99.90;;;;;;4907630;29;20028;-76
2023/12/08 15:48:29;;;;;;;13.07;8.05;;;7.50;99.90;;;;;;4923204;29;20214;-76
2023/12/08 15:50:56;;;;;;;12.57;7.53;;;7.50;99.90;;;;;;4907564;29;20025;-76
2023/12/08 15:53:22;;;;;;;12.88;7.78;;;7.50;99.90;;;;;;4924909;29;20060;-76
2023/12/08 15:55:47;;;;;;;14.98;8.13;;;7.40;99.90;;;;;;4926932;29;20020;-76
2023/12/08 15:58:13;;;;;;;14.30;7.45;;;7.40;99.90;;;;;;4926129;29;20504;-75
2023/12/08 16:00:40;;;;;;;13.98;7.50;;;7.30;99.90;;;;;;4925949;29;20028;-76
2023/12/08 16:03:05;;;;;;;13.07;7.35;;;7.30;99.90;;;;;;4923365;28;20414;-76
2023/12/08 16:05:40;;;;;;;10.10;5.93;;;7.30;99.90;;;;;;4927057;29;20036;-78
2023/12/08 16:08:06;;;;;;;10.02;5.63;;;7.30;99.90;;;;;;4909514;29;20032;-76
2023/12/08 16:10:32;;;;;;;11.40;6.55;;;7.30;99.90;;;;;;4926624;29;20051;-76
2023/12/08 16:12:57;;;;;;;12.95;6.80;;;7.20;99.90;;;;;;4926020;29;20044;-76
2023/12/08 16:15:23;;;;;;;11.75;6.45;;;7.30;99.90;;;;;;4926429;29;20020;-77
2023/12/08 16:17:49;;;;;;;11.02;6.00;;;7.20;99.90;;;;;;4926509;29;20031;-75
2023/12/08 16:20:14;;;;;;;14.30;6.82;;;7.30;99.90;;;;;;4929280;29;20332;-74
2023/12/08 16:22:40;;;;;;;14.55;7.72;;;7.30;99.90;;;;;;4925635;29;20020;-74
2023/12/08 16:25:06;;;;;;;12.68;7.07;;;7.30;99.90;;;;;;4925972;29;20044;-77
2023/12/08 16:27:32;;;;;;;11.57;7.22;;;7.30;99.90;;;;;;4925585;29;20372;-75
2023/12/08 16:29:58;;;;;;;12.27;7.88;;;7.30;99.90;;;;;;4925974;29;20036;-76
2023/12/08 16:32:23;;;;;;;15.20;8.10;;;7.30;99.90;;;;;;4926578;29;20334;-76
2023/12/08 16:34:49;;;;;;;16.95;7.85;;;7.30;99.90;;;;;;4944300;29;20055;-76
2023/12/08 16:37:15;;;;;;;16.25;8.35;;;7.30;99.90;;;;;;4927990;29;20031;-74
2023/12/08 16:39:40;;;;;;;15.13;7.78;;;7.30;99.90;;;;;;4926188;29;20062;-77
2023/12/08 16:42:06;;;;;;;12.63;7.03;;;7.30;99.90;;;;;;4924562;29;20039;-76
2023/12/08 16:44:32;;;;;;;15.93;7.72;;;7.30;99.90;;;;;;4926347;29;20040;-74
2023/12/08 16:46:57;;;;;;;11.93;7.10;;;7.30;99.90;;;;;;4926284;29;20056;-79
2023/12/08 16:49:24;;;;;;;13.88;8.15;;;7.20;99.90;;;;;;4925459;29;20091;-77
2023/12/08 16:51:49;;;;;;;12.05;6.93;;;7.30;99.90;;;;;;4926372;29;20035;-74
2023/12/08 16:54:16;;;;;;;11.18;6.50;;;7.20;99.90;;;;;;4929962;29;20043;-76
2023/12/08 16:56:42;;;;;;;18.38;9.20;;;7.30;99.90;;;;;;4937437;29;20032;-75
2023/12/08 16:59:08;;;;;;;16.25;8.45;;;7.20;99.90;;;;;;4945153;29;20114;-74
2023/12/08 17:01:34;;;;;;;14.23;7.75;;;7.30;99.90;;;;;;4928246;29;20039;-75
2023/12/08 17:03:59;;;;;;;10.60;6.88;;;7.30;99.90;;;;;;4925676;29;20052;-75
2023/12/08 17:06:26;;;;;;;12.73;8.20;;;7.30;99.90;;;;;;4926171;29;20047;-75
2023/12/08 17:08:52;;;;;;;12.25;7.32;;;7.30;99.90;;;;;;4944006;29;20078;-76
2023/12/08 17:11:18;;;;;;;12.57;7.57;;;7.30;99.90;;;;;;4944829;29;20251;-75
2023/12/08 17:13:44;;;;;;;12.00;7.05;;;7.30;99.90;;;;;;4945428;29;20019;-76
2023/12/08 17:16:10;;;;;;;14.00;7.18;;;7.30;99.90;;;;;;4944771;29;20035;-76
2023/12/08 17:18:36;;;;;;;12.18;7.60;;;7.30;99.90;;;;;;4928550;29;20036;-76
2023/12/08 17:21:04;;;;;;;13.57;8.52;;;7.30;99.90;;;;;;4928224;29;20032;-77
2023/12/08 17:23:30;;;;;;;11.95;7.97;;;7.20;99.90;;;;;;4945448;29;20368;-76
2023/12/08 17:26:05;;;;;;;14.63;8.63;;;7.10;99.90;;;;;;4940623;29;20039;-78
2023/12/08 17:28:31;;;;;;;11.35;7.53;;;7.10;99.90;;;;;;4928832;29;20031;-77
2023/12/08 17:30:58;;;;;;;12.35;7.93;;;7.00;99.90;;;;;;4944158;29;20028;-77
2023/12/08 17:33:23;;;;;;;11.82;7.90;;;7.00;99.90;;;;;;4927398;29;20026;-74
2023/12/08 17:35:49;;;;;;;12.68;7.85;;;6.90;99.90;;;;;;4945331;29;20063;-76
2023/12/08 17:38:15;;;;;;;12.57;8.60;;;6.90;99.90;;;;;;4915803;29;20246;-75
2023/12/08 17:40:44;;;;;;;12.07;8.20;;;7.00;99.90;;;;;;4915241;29;20055;-76